CheckWX is a tool to help pilots better visualize weather data.  It is not intended as a substitute for an official pre-flight weather briefing.

16:41:09 UTC

KJZP METAR
Pickens County Airport
Jasper, Georgia, USA
Current

26 mins ago

KJZP 201615Z AUTO 36003KT 10SM CLR 11/03 A3022 RMK AO2 T01110030
Observed
Nov-20 @ 16:15 UTC
Wind
  • 360° at 3 KTS
Visibility
10 SM
Flight Rules
VFR
Cloud Levels
  • Clear skies
Temperature
11°C / 52°F
Dewpoint
C / 37°F
Humidity
58%
Altimeter
30.22" Hg
Pressure
1023.42 hPa
Previous

46 mins ago

KJZP 201555Z AUTO 01005KT 10SM CLR 11/02 A3023 RMK AO2 T01090021
Observed
Nov-20 @ 15:55 UTC
Wind
  • 010° at 5 KTS
Visibility
10 SM
Flight Rules
VFR
Cloud Levels
  • Clear skies
Temperature
11°C / 52°F
Dewpoint
C / 36°F
Humidity
54%
Altimeter
30.23" Hg
Pressure
1023.72 hPa
Previous

1 hour ago

KJZP 201535Z AUTO 03005KT 10SM CLR 10/02 A3022 RMK AO2 T01020022
Observed
Nov-20 @ 15:35 UTC
Wind
  • 030° at 5 KTS
Visibility
10 SM
Flight Rules
VFR
Cloud Levels
  • Clear skies
Temperature
10°C / 50°F
Dewpoint
C / 36°F
Humidity
58%
Altimeter
30.22" Hg
Pressure
1023.42 hPa